Time;durP1;ratioP1;P1;durP2;ratioP2;P2;SDS_P1;SDS_P2;PMS_P1;PMS_P2;Temp;Humidity;BMP_temperature;BMP_pressure;BME280_temperature;BME280_humidity;BME280_pressure;Samples;Min_cycle;Max_cycle;Signal;HPM_P1;HPM_P2
2022/05/31 00:01:54;;;;;;;;;;;;;;;24.66;53.07;99529.41;5031932;28;20376;-47
2022/05/31 00:04:19;;;;;;;;;;;;;;;24.61;53.75;99524.06;5031614;28;19943;-48
2022/05/31 00:06:44;;;;;;;;;;;;;;;24.65;53.52;99527.78;5031654;28;19909;-52
2022/05/31 00:09:10;;;;;;;;;;;;;;;24.70;53.28;99530.41;5031670;28;19913;-50
2022/05/31 00:11:36;;;;;;;;;;;;;;;24.59;53.76;99534.44;5031644;28;19920;-48
2022/05/31 00:14:02;;;;;;;;;;;;;;;24.53;54.01;99536.44;5031682;28;19963;-51
2022/05/31 00:16:27;;;;;;;;;;;;;;;24.65;53.69;99540.56;5031634;28;19904;-50
2022/05/31 00:18:52;;;;;;;;;;;;;;;24.54;54.06;99538.06;5031481;28;19986;-48
2022/05/31 00:21:18;;;;;;;;;;;;;;;24.53;53.91;99544.59;5031504;28;19913;-48
2022/05/31 00:23:43;;;;;;;;;;;;;;;24.54;53.89;99550.84;5031403;28;19909;-47
2022/05/31 00:26:08;;;;;;;;;;;;;;;24.55;54.11;99542.38;5030789;28;20336;-47
2022/05/31 00:28:34;;;;;;;;;;;;;;;24.28;55.18;99548.56;5031123;28;19913;-47
2022/05/31 00:30:59;;;;;;;;;;;;;;;24.16;55.43;99549.06;5031533;28;19929;-51
2022/05/31 00:33:26;;;;;;;;;;;;;;;24.16;55.74;99550.94;5031398;28;19909;-50
2022/05/31 00:35:53;;;;;;;;;;;;;;;24.31;54.57;99552.59;5031040;28;19908;-48
2022/05/31 00:38:19;;;;;;;;;;;;;;;24.32;54.79;99549.56;5031116;28;19951;-49
2022/05/31 00:40:44;;;;;;;;;;;;;;;24.36;53.96;99556.03;5036593;28;19955;-51
2022/05/31 00:43:12;;;;;;;;;;;;;;;24.36;53.59;99552.50;5050865;28;19996;-48
2022/05/31 00:45:41;;;;;;;;;;;;;;;24.39;53.68;99560.88;5050796;28;19917;-49
2022/05/31 00:48:11;;;;;;;;;;;;;;;24.43;53.70;99562.97;5050243;28;19912;-48
2022/05/31 00:50:44;;;;;;;;;;;;;;;24.05;53.48;99561.19;5050707;28;20232;-50
2022/05/31 00:53:14;;;;;;;;;;;;;;;24.16;53.29;99567.25;5050531;28;19924;-47
2022/05/31 00:55:45;;;;;;;;;;;;;;;24.16;53.74;99561.81;5050465;28;20041;-48
2022/05/31 00:58:14;;;;;;;;;;;;;;;24.03;52.71;99554.44;5050494;28;19913;-49
2022/05/31 01:00:40;;;;;;;;;;;;;;;24.06;52.03;99562.00;5050387;28;20015;-47
2022/05/31 01:03:07;;;;;;;;;;;;;;;24.00;52.24;99567.50;5050125;28;19924;-50
2022/05/31 01:05:34;;;;;;;;;;;;;;;23.94;52.24;99559.75;5049625;28;19931;-50
2022/05/31 01:07:59;;;;;;;;;;;;;;;23.98;51.83;99556.13;5049542;28;19962;-49
2022/05/31 01:10:24;;;;;;;;;;;;;;;24.02;51.91;99559.06;5049552;28;19995;-49
2022/05/31 01:12:51;;;;;;;;;;;;;;;24.00;51.36;99558.56;5049388;28;20380;-49
2022/05/31 01:15:17;;;;;;;;;;;;;;;24.05;50.93;99558.47;5049971;28;19909;-47
2022/05/31 01:17:43;;;;;;;;;;;;;;;23.98;50.90;99549.91;5050416;28;20472;-47
2022/05/31 01:20:09;;;;;;;;;;;;;;;23.99;50.95;99548.81;5050203;28;19909;-47
2022/05/31 01:22:38;;;;;;;;;;;;;;;23.96;51.15;99549.38;5050198;28;19913;-48
2022/05/31 01:25:21;;;;;;;;;;;;;;;23.90;50.84;99562.25;5050042;28;19912;-47
2022/05/31 01:28:05;;;;;;;;;;;;;;;23.95;50.92;99566.78;5050525;28;20014;-48
2022/05/31 01:30:32;;;;;;;;;;;;;;;23.95;51.65;99570.34;5050005;28;19924;-48
2022/05/31 01:33:03;;;;;;;;;;;;;;;24.05;51.44;99561.19;5049966;28;19908;-50
2022/05/31 01:35:30;;;;;;;;;;;;;;;24.04;50.89;99551.41;5050139;28;19913;-47
2022/05/31 01:37:56;;;;;;;;;;;;;;;23.51;52.20;99566.06;5050231;28;19909;-47
2022/05/31 01:40:33;;;;;;;;;;;;;;;23.60;52.20;99560.78;5047140;28;19966;-50
2022/05/31 01:42:59;;;;;;;;;;;;;;;23.68;51.98;99565.53;5030059;28;19932;-48
2022/05/31 01:45:33;;;;;;;;;;;;;;;23.69;52.44;99567.16;5028788;28;19987;-50
2022/05/31 01:48:01;;;;;;;;;;;;;;;23.57;52.88;99556.75;5030099;28;19917;-48
2022/05/31 01:50:26;;;;;;;;;;;;;;;23.66;52.58;99573.19;5029932;28;19913;-51
2022/05/31 01:52:52;;;;;;;;;;;;;;;23.54;52.79;99570.91;5029599;28;19913;-49
2022/05/31 01:55:18;;;;;;;;;;;;;;;23.54;53.08;99580.97;5029767;28;20341;-49
2022/05/31 01:57:47;;;;;;;;;;;;;;;23.52;52.99;99583.19;5030001;28;19909;-46
2022/05/31 02:00:14;;;;;;;;;;;;;;;23.59;53.12;99594.50;5032107;28;19919;-46
2022/05/31 02:02:39;;;;;;;;;;;;;;;21.92;58.37;99599.47;5033653;28;19912;-46
2022/05/31 02:05:05;;;;;;;;;;;;;;;21.61;59.45;99597.78;5033577;28;19975;-50
2022/05/31 02:07:30;;;;;;;;;;;;;;;21.48;59.74;99596.47;5033764;28;20343;-48
2022/05/31 02:09:56;;;;;;;;;;;;;;;21.67;58.48;99590.44;5033988;28;20012;-47
2022/05/31 02:12:22;;;;;;;;;;;;;;;21.63;58.30;99600.22;5033445;28;20009;-49
2022/05/31 02:14:48;;;;;;;;;;;;;;;21.64;57.95;99599.91;5033879;28;19948;-47
2022/05/31 02:17:16;;;;;;;;;;;;;;;21.58;59.37;99617.28;5034140;28;19948;-48
2022/05/31 02:19:41;;;;;;;;;;;;;;;21.60;59.55;99614.28;5033868;28;19948;-47
2022/05/31 02:22:08;;;;;;;;;;;;;;;21.48;60.14;99617.34;5033652;28;20105;-50
2022/05/31 02:24:34;;;;;;;;;;;;;;;21.27;60.42;99613.88;5033807;28;20521;-47
2022/05/31 02:27:00;;;;;;;;;;;;;;;21.98;58.52;99620.81;5033476;28;20008;-48
2022/05/31 02:29:26;;;;;;;;;;;;;;;22.49;57.21;99625.03;5033539;28;20007;-46
2022/05/31 02:31:52;;;;;;;;;;;;;;;22.71;56.39;99623.75;5033445;28;20008;-48
2022/05/31 02:34:19;;;;;;;;;;;;;;;22.82;56.12;99625.25;5033298;28;20000;-47
2022/05/31 02:36:45;;;;;;;;;;;;;;;22.97;55.59;99629.72;5033397;28;20349;-47
2022/05/31 02:39:10;;;;;;;;;;;;;;;23.12;55.27;99632.28;5033576;28;19944;-48
2022/05/31 02:41:36;;;;;;;;;;;;;;;23.06;55.44;99633.44;5045835;28;20008;-47
2022/05/31 02:44:01;;;;;;;;;;;;;;;23.03;55.82;99634.81;5053338;28;19909;-47
2022/05/31 02:46:27;;;;;;;;;;;;;;;23.12;55.76;99629.56;5053314;28;20288;-47
2022/05/31 02:48:52;;;;;;;;;;;;;;;23.15;55.70;99639.03;5053305;28;19948;-48
2022/05/31 02:51:18;;;;;;;;;;;;;;;23.12;55.75;99637.69;5052956;28;19970;-49
2022/05/31 02:53:43;;;;;;;;;;;;;;;23.14;55.67;99638.22;5053063;28;20088;-47
2022/05/31 02:56:09;;;;;;;;;;;;;;;23.14;55.84;99640.13;5052718;28;19909;-47
2022/05/31 02:58:34;;;;;;;;;;;;;;;23.32;54.81;99642.09;5053054;28;20344;-50
2022/05/31 03:01:00;;;;;;;;;;;;;;;23.65;53.43;99641.41;5052968;28;20050;-51
2022/05/31 03:03:25;;;;;;;;;;;;;;;23.68;53.36;99640.78;5052749;28;19908;-47
2022/05/31 03:05:51;;;;;;;;;;;;;;;23.55;54.09;99642.31;5052220;28;19917;-51
2022/05/31 03:08:17;;;;;;;;;;;;;;;23.52;53.67;99641.00;5052594;28;19982;-51
2022/05/31 03:10:44;;;;;;;;;;;;;;;23.42;53.32;99643.88;5051787;28;19909;-47
2022/05/31 03:13:11;;;;;;;;;;;;;;;23.40;53.09;99637.91;5052160;28;20360;-50
2022/05/31 03:15:37;;;;;;;;;;;;;;;23.56;52.78;99647.47;5052960;28;19952;-49
2022/05/31 03:18:08;;;;;;;;;;;;;;;23.59;52.79;99651.53;5053044;28;19982;-47
2022/05/31 03:20:36;;;;;;;;;;;;;;;23.67;52.23;99648.16;5053103;28;19991;-49
2022/05/31 03:23:04;;;;;;;;;;;;;;;23.62;51.64;99637.34;5052955;28;19909;-47
2022/05/31 03:25:31;;;;;;;;;;;;;;;23.65;51.58;99644.91;5053149;28;20015;-49
2022/05/31 03:28:01;;;;;;;;;;;;;;;23.68;51.92;99647.03;5052524;28;19967;-50
2022/05/31 03:30:27;;;;;;;;;;;;;;;23.84;52.36;99652.28;5052963;28;19960;-48
2022/05/31 03:32:53;;;;;;;;;;;;;;;24.01;52.10;99649.88;5052745;28;19945;-48
2022/05/31 03:35:18;;;;;;;;;;;;;;;24.22;52.46;99663.13;5052383;28;19970;-52
2022/05/31 03:37:44;;;;;;;;;;;;;;;24.42;50.50;99657.34;5052299;28;19909;-47
2022/05/31 03:40:10;;;;;;;;;;;;;;;24.82;51.20;99665.94;5051731;28;19956;-50
2022/05/31 03:42:36;;;;;;;;;;;;;;;25.17;50.07;99672.63;5032556;28;19917;-47
2022/05/31 03:45:01;;;;;;;;;;;;;;;25.42;49.57;99661.53;5032742;28;19966;-49
2022/05/31 03:47:27;;;;;;;;;;;;;;;25.66;48.90;99659.38;5032711;28;20003;-50
2022/05/31 03:49:52;;;;;;;;;;;;;;;25.92;48.21;99662.38;5032088;28;19909;-50
2022/05/31 03:52:17;;;;;;;;;;;;;;;26.07;48.16;99666.69;5032787;28;19939;-48
2022/05/31 03:54:43;;;;;;;;;;;;;;;26.14;48.20;99679.88;5032114;28;20373;-48
2022/05/31 03:57:12;;;;;;;;;;;;;;;26.22;47.99;99672.88;5031802;28;19913;-47
2022/05/31 03:59:38;;;;;;;;;;;;;;;26.40;46.96;99677.34;5032306;28;20117;-47
2022/05/31 04:02:04;;;;;;;;;;;;;;;26.63;46.38;99682.81;5032790;28;19966;-50
2022/05/31 04:04:29;;;;;;;;;;;;;;;26.98;45.72;99678.34;5032357;28;19909;-50
2022/05/31 04:06:54;;;;;;;;;;;;;;;27.29;44.87;99681.03;5031732;28;19919;-48
2022/05/31 04:09:20;;;;;;;;;;;;;;;27.52;44.97;99674.69;5031671;28;19916;-50
2022/05/31 04:11:45;;;;;;;;;;;;;;;27.76;43.91;99679.69;5045811;28;19917;-48
2022/05/31 04:14:10;;;;;;;;;;;;;;;27.84;43.41;99676.19;5051653;28;19909;-50
2022/05/31 04:16:36;;;;;;;;;;;;;;;28.17;42.81;99684.72;5051977;28;19948;-48
2022/05/31 04:19:01;;;;;;;;;;;;;;;28.07;41.96;99685.84;5051822;28;19995;-48
2022/05/31 04:21:27;;;;;;;;;;;;;;;27.76;42.10;99694.19;5051376;28;19920;-50
2022/05/31 04:23:58;;;;;;;;;;;;;;;28.00;41.47;99690.19;5050808;28;20360;-50
2022/05/31 04:26:24;;;;;;;;;;;;;;;28.46;40.90;99705.97;5051390;28;19938;-49
2022/05/31 04:28:49;;;;;;;;;;;;;;;28.81;40.06;99700.44;5050882;28;19935;-51
2022/05/31 04:31:14;;;;;;;;;;;;;;;29.02;39.55;99696.97;5050698;28;19924;-51
2022/05/31 04:33:40;;;;;;;;;;;;;;;29.31;39.06;99703.66;5051300;28;19962;-51
2022/05/31 04:36:15;;;;;;;;;;;;;;;29.72;38.20;99710.34;5032119;28;20292;-51
2022/05/31 04:38:41;;;;;;;;;;;;;;;29.23;38.67;99713.53;5031285;28;19916;-48
2022/05/31 04:41:07;;;;;;;;;;;;;;;29.46;38.45;99705.81;5032605;28;20003;-48
2022/05/31 04:43:33;;;;;;;;;;;;;;;29.84;37.34;99712.41;5040342;28;19912;-48
2022/05/31 04:46:18;;;;;;;;;;;;;;;30.28;36.54;99707.38;5051740;28;19977;-48
2022/05/31 04:48:44;;;;;;;;;;;;;;;30.64;36.12;99712.22;5050631;28;19917;-47
2022/05/31 04:51:11;;;;;;;;;;;;;;;30.83;36.31;99710.88;5050488;28;20302;-51
2022/05/31 04:53:36;;;;;;;;;;;;;;;29.61;37.83;99707.19;5050774;28;19914;-50
2022/05/31 04:56:06;;;;;;;;;;;;;;;28.61;40.09;99704.66;5050527;28;19920;-50
2022/05/31 04:58:32;;;;;;;;;;;;;;;28.15;40.96;99703.38;5050774;28;20280;-48
2022/05/31 05:00:57;;;;;;;;;;;;;;;28.16;41.23;99706.91;5050680;28;19909;-50
2022/05/31 05:03:23;;;;;;;;;;;;;;;28.27;40.95;99708.19;5050179;28;20010;-50
2022/05/31 05:05:48;;;;;;;;;;;;;;;27.97;41.30;99707.22;5039953;28;20296;-52
2022/05/31 05:08:13;;;;;;;;;;;;;;;28.26;41.21;99704.66;5039010;28;19960;-50
2022/05/31 05:10:45;;;;;;;;;;;;;;;28.39;41.07;99707.56;5048492;28;19961;-50
2022/05/31 05:13:10;;;;;;;;;;;;;;;28.43;41.03;99712.06;5047562;28;19960;-51
2022/05/31 05:15:39;;;;;;;;;;;;;;;28.29;41.10;99708.69;5050077;28;19944;-50
2022/05/31 05:18:05;;;;;;;;;;;;;;;28.60;41.00;99703.06;5049594;28;19916;-50
2022/05/31 05:20:36;;;;;;;;;;;;;;;29.12;39.31;99706.78;5049811;28;19917;-50
2022/05/31 05:23:03;;;;;;;;;;;;;;;29.29;38.57;99701.22;5049703;28;20347;-47
2022/05/31 05:25:28;;;;;;;;;;;;;;;29.55;38.57;99712.06;5049720;28;19913;-50
2022/05/31 05:27:53;;;;;;;;;;;;;;;29.59;39.05;99703.97;5049993;28;20058;-52
2022/05/31 05:33:02;;;;;;;;;;;;;;;29.79;38.38;99713.38;5049985;28;19915;-48
2022/05/31 05:35:27;;;;;;;;;;;;;;;29.94;37.73;99715.53;5047278;28;19909;-50
2022/05/31 05:37:53;;;;;;;;;;;;;;;30.05;37.77;99709.66;5048605;28;19915;-47
2022/05/31 05:40:18;;;;;;;;;;;;;;;29.90;38.54;99711.84;5048015;28;20423;-48
2022/05/31 05:42:43;;;;;;;;;;;;;;;30.86;37.34;99702.75;5041856;28;19939;-49
2022/05/31 05:45:10;;;;;;;;;;;;;;;31.43;35.68;99709.34;5038527;28;19924;-50
2022/05/31 05:47:38;;;;;;;;;;;;;;;31.10;35.79;99703.97;5037536;28;20390;-49
2022/05/31 05:50:04;;;;;;;;;;;;;;;30.65;36.94;99705.56;5037491;28;19917;-51
2022/05/31 05:52:29;;;;;;;;;;;;;;;30.60;36.43;99711.28;5036083;28;19966;-50
2022/05/31 05:54:54;;;;;;;;;;;;;;;30.66;36.38;99717.38;5041202;28;20276;-49
2022/05/31 05:57:20;;;;;;;;;;;;;;;30.45;36.90;99714.66;5039456;28;19974;-48
2022/05/31 05:59:45;;;;;;;;;;;;;;;30.71;36.21;99720.69;5039149;28;19996;-49
2022/05/31 06:02:21;;;;;;;;;;;;;;;30.65;36.44;99708.31;5038813;28;19996;-50
2022/05/31 06:04:49;;;;;;;;;;;;;;;31.01;35.61;99708.75;5041312;28;19909;-49
2022/05/31 06:07:24;;;;;;;;;;;;;;;31.01;35.78;99706.00;5038089;28;19917;-46
2022/05/31 06:09:55;;;;;;;;;;;;;;;30.84;35.75;99715.22;5041497;28;19913;-47
2022/05/31 06:12:22;;;;;;;;;;;;;;;31.26;35.16;99718.63;5049883;28;19916;-46
2022/05/31 06:14:51;;;;;;;;;;;;;;;31.44;35.48;99721.16;5042115;28;19913;-47
2022/05/31 06:17:19;;;;;;;;;;;;;;;31.65;34.48;99715.56;5029779;28;19917;-48
2022/05/31 06:19:46;;;;;;;;;;;;;;;31.70;34.50;99701.53;5030021;28;19927;-49
2022/05/31 06:22:11;;;;;;;;;;;;;;;31.79;34.72;99709.69;5029581;28;19913;-47
2022/05/31 06:24:38;;;;;;;;;;;;;;;32.03;34.12;99701.38;5029650;28;20387;-48
2022/05/31 06:27:04;;;;;;;;;;;;;;;31.85;34.44;99705.53;5029160;28;19909;-48
2022/05/31 06:29:29;;;;;;;;;;;;;;;32.21;34.21;99699.13;5029163;28;19911;-50
2022/05/31 06:31:55;;;;;;;;;;;;;;;31.94;34.55;99695.19;5028931;28;19917;-48
2022/05/31 06:34:21;;;;;;;;;;;;;;;32.08;34.22;99697.56;5029452;28;19982;-49
2022/05/31 06:36:46;;;;;;;;;;;;;;;32.02;34.38;99697.03;5030022;28;19916;-48
2022/05/31 06:39:12;;;;;;;;;;;;;;;32.14;34.28;99699.75;5029032;28;19909;-49
2022/05/31 06:41:38;;;;;;;;;;;;;;;32.44;34.11;99699.38;5028974;28;19921;-49
2022/05/31 06:44:04;;;;;;;;;;;;;;;32.44;33.56;99699.38;5029499;28;19931;-50
2022/05/31 06:46:30;;;;;;;;;;;;;;;32.86;33.21;99700.88;5032259;28;19912;-48
2022/05/31 06:48:56;;;;;;;;;;;;;;;32.84;33.44;99704.03;5032772;28;20348;-50
2022/05/31 06:56:58;;;;;;;;;;;;;;;32.80;33.43;99697.59;5033388;28;20399;-49
2022/05/31 06:59:23;;;;;;;;;;;;;;;32.91;33.63;99693.16;5040007;28;19959;-48
2022/05/31 07:01:49;;;;;;;;;;;;;;;32.68;33.68;99690.22;5052291;28;19909;-48
2022/05/31 07:04:15;;;;;;;;;;;;;;;32.99;32.91;99685.06;5052668;28;19967;-50
2022/05/31 07:06:40;;;;;;;;;;;;;;;32.56;33.87;99679.25;5034774;28;19915;-48
2022/05/31 07:09:05;;;;;;;;;;;;;;;32.99;32.90;99682.31;5032055;28;19913;-49
2022/05/31 07:11:31;;;;;;;;;;;;;;;32.84;32.87;99686.66;5030363;28;19920;-48
2022/05/31 07:13:56;;;;;;;;;;;;;;;33.14;32.66;99686.25;5032439;28;19936;-50
2022/05/31 07:16:21;;;;;;;;;;;;;;;33.30;32.65;99682.31;5032776;28;19909;-48
2022/05/31 07:18:47;;;;;;;;;;;;;;;33.52;32.12;99684.78;5032847;28;19975;-51
2022/05/31 07:21:12;;;;;;;;;;;;;;;33.56;32.38;99685.66;5030845;28;19959;-50
2022/05/31 07:23:43;;;;;;;;;;;;;;;33.77;31.78;99677.88;5032404;28;19963;-48
2022/05/31 07:26:09;;;;;;;;;;;;;;;33.69;32.03;99676.91;5032229;28;19909;-51
2022/05/31 07:28:34;;;;;;;;;;;;;;;33.99;32.40;99686.59;5032049;28;19913;-51
2022/05/31 07:31:00;;;;;;;;;;;;;;;33.77;32.56;99686.13;5032016;28;19917;-47
2022/05/31 07:33:25;;;;;;;;;;;;;;;33.92;32.21;99678.19;5032114;28;19916;-48
2022/05/31 07:35:50;;;;;;;;;;;;;;;33.58;31.80;99678.59;5045333;28;20300;-50
2022/05/31 07:38:16;;;;;;;;;;;;;;;33.15;32.62;99672.13;5051047;28;19915;-47
2022/05/31 07:40:43;;;;;;;;;;;;;;;32.04;34.79;99672.72;5046714;28;19908;-49
2022/05/31 07:43:08;;;;;;;;;;;;;;;33.06;33.40;99672.28;5031718;28;19948;-48
2022/05/31 07:45:34;;;;;;;;;;;;;;;33.78;32.10;99673.97;5031989;28;19967;-51
2022/05/31 07:47:59;;;;;;;;;;;;;;;34.35;31.26;99671.56;5032142;28;20371;-50
2022/05/31 07:50:24;;;;;;;;;;;;;;;34.32;31.12;99671.50;5042814;28;19909;-49
2022/05/31 07:52:50;;;;;;;;;;;;;;;34.05;31.08;99674.91;5038948;28;19921;-47
2022/05/31 07:55:15;;;;;;;;;;;;;;;33.90;31.66;99673.00;5047438;28;19912;-50
2022/05/31 08:00:24;;;;;;;;;;;;;;;33.78;30.97;99657.41;5042852;28;19916;-49
2022/05/31 08:02:50;;;;;;;;;;;;;;;33.50;32.32;99665.81;5043597;28;19908;-50
2022/05/31 08:05:15;;;;;;;;;;;;;;;33.47;31.95;99661.00;5035598;28;19915;-50
2022/05/31 08:07:40;;;;;;;;;;;;;;;33.20;32.80;99657.25;5034167;28;20218;-51
2022/05/31 08:10:09;;;;;;;;;;;;;;;33.47;32.23;99659.06;5045030;28;19913;-50
2022/05/31 08:12:34;;;;;;;;;;;;;;;33.87;31.38;99659.94;5041681;28;19920;-50
2022/05/31 08:15:00;;;;;;;;;;;;;;;34.48;30.36;99655.59;5037134;28;19997;-51
2022/05/31 08:17:26;;;;;;;;;;;;;;;34.20;31.33;99656.69;5047570;28;20376;-51
2022/05/31 08:19:51;;;;;;;;;;;;;;;34.25;31.03;99655.59;5035785;28;20206;-50
2022/05/31 08:22:16;;;;;;;;;;;;;;;34.30;31.07;99648.97;5043485;28;19909;-50
2022/05/31 08:24:42;;;;;;;;;;;;;;;34.39;30.94;99644.81;5042537;28;19915;-48
2022/05/31 08:27:07;;;;;;;;;;;;;;;33.58;31.39;99648.25;5035841;28;20511;-48
2022/05/31 08:29:33;;;;;;;;;;;;;;;33.23;32.17;99654.59;5047796;28;19920;-49
2022/05/31 08:31:58;;;;;;;;;;;;;;;33.82;31.69;99651.97;5036648;28;20299;-51
2022/05/31 08:34:27;;;;;;;;;;;;;;;34.13;31.43;99647.44;5042187;28;19909;-51
2022/05/31 08:36:53;;;;;;;;;;;;;;;33.87;31.06;99646.13;5043378;28;19961;-51
2022/05/31 08:39:18;;;;;;;;;;;;;;;33.82;31.08;99638.16;5034306;28;19936;-51
2022/05/31 08:41:45;;;;;;;;;;;;;;;34.02;30.72;99633.41;5040000;28;19909;-51
2022/05/31 08:44:16;;;;;;;;;;;;;;;34.01;31.92;99635.41;5043698;28;19944;-50
2022/05/31 08:46:45;;;;;;;;;;;;;;;34.16;31.86;99625.47;5041979;28;19913;-50
2022/05/31 08:49:18;;;;;;;;;;;;;;;34.33;31.32;99628.91;5035185;28;19913;-48
2022/05/31 08:51:52;;;;;;;;;;;;;;;34.09;32.37;99631.59;5046844;28;19913;-49
2022/05/31 08:57:09;;;;;;;;;;;;;;;33.74;31.82;99626.19;5036644;28;20016;-51
2022/05/31 08:59:39;;;;;;;;;;;;;;;34.06;31.26;99637.03;5047176;28;19909;-51
2022/05/31 09:02:16;;;;;;;;;;;;;;;34.12;32.37;99621.00;5037262;28;19915;-49
2022/05/31 09:04:45;;;;;;;;;;;;;;;34.11;30.88;99609.16;5039216;28;20260;-50
2022/05/31 09:07:25;;;;;;;;;;;;;;;34.15;31.41;99618.31;5030985;28;20002;-49
2022/05/31 09:09:53;;;;;;;;;;;;;;;34.04;30.64;99622.81;5034698;28;19908;-48
2022/05/31 09:12:39;;;;;;;;;;;;;;;34.16;31.17;99611.66;5042206;28;19924;-50
2022/05/31 09:15:18;;;;;;;;;;;;;;;34.31;30.09;99625.72;5023485;28;19909;-51
2022/05/31 09:18:07;;;;;;;;;;;;;;;32.99;32.57;99632.72;5039223;28;19916;-38
2022/05/31 09:20:38;;;;;;;;;;;;;;;33.05;31.83;99618.31;5035331;28;19909;-38
2022/05/31 09:23:04;;;;;;;;;;;;;;;32.81;31.77;99627.59;5044823;28;19916;-37
2022/05/31 09:25:34;;;;;;;;;;;;;;;33.35;31.02;99614.28;5033508;28;19909;-36
2022/05/31 09:28:04;;;;;;;;;;;;;;;33.30;31.15;99607.06;5044014;28;19942;-38
2022/05/31 09:30:35;;;;;;;;;;;;;;;33.48;31.57;99613.78;5039121;28;19916;-37
2022/05/31 09:33:04;;;;;;;;;;;;;;;33.45;32.54;99617.28;5035557;28;19909;-38
2022/05/31 09:35:40;;;;;;;;;;;;;;;33.47;31.12;99614.13;5046163;28;19913;-37
2022/05/31 09:38:24;;;;;;;;;;;;;;;33.69;30.79;99618.97;5035783;28;19999;-37
2022/05/31 09:40:50;;;;;;;;;;;;;;;33.88;31.23;99617.38;5037181;28;19920;-37
2022/05/31 09:43:35;;;;;;;;;;;;;;;33.48;30.83;99604.72;5029996;28;20304;-37
2022/05/31 09:46:00;;;;;;;;;;;;;;;33.82;31.04;99608.59;5035606;28;19909;-38
2022/05/31 09:48:27;;;;;;;;;;;;;;;33.82;30.64;99597.56;5040498;28;19936;-38
2022/05/31 09:50:57;;;;;;;;;;;;;;;33.62;31.52;99596.72;5041491;28;19995;-37
2022/05/31 09:59:11;;;;;;;;;;;;;;;33.17;31.76;99598.13;5029258;28;20326;-36
2022/05/31 10:01:46;;;;;;;;;;;;;;;32.87;32.31;99604.09;5027645;28;19909;-37
2022/05/31 10:04:13;;;;;;;;;;;;;;;33.45;31.79;99597.16;5035052;28;19952;-38
2022/05/31 10:06:56;;;;;;;;;;;;;;;33.63;31.39;99589.28;5041661;28;19983;-38
2022/05/31 10:09:24;;;;;;;;;;;;;;;33.22;31.12;99581.31;5031044;28;20203;-37
2022/05/31 10:12:02;;;;;;;;;;;;;;;33.16;31.68;99573.69;5043351;28;19984;-38
2022/05/31 10:14:31;;;;;;;;;;;;;;;32.99;32.45;99574.84;5028844;28;19909;-37
2022/05/31 10:17:13;;;;;;;;;;;;;;;33.62;32.26;99573.88;5043026;28;19979;-38
2022/05/31 10:19:38;;;;;;;;;;;;;;;32.88;32.10;99571.84;5033148;28;19909;-38
2022/05/31 10:22:17;;;;;;;;;;;;;;;33.32;32.46;99577.22;5047148;28;19909;-37
2022/05/31 10:24:42;;;;;;;;;;;;;;;34.70;29.40;99568.41;5045297;28;19955;-42
2022/05/31 10:27:21;;;;;;;;;;;;;;;35.42;27.70;99575.78;5038696;28;20039;-37
2022/05/31 10:29:49;;;;;;;;;;;;;;;35.37;28.24;99573.34;5037160;28;19982;-38
2022/05/31 10:32:27;;;;;;;;;;;;;;;36.31;27.34;99572.47;5045707;28;19916;-37
2022/05/31 10:35:11;;;;;;;;;;;;;;;36.00;27.37;99574.53;5046003;28;19966;-37
2022/05/31 10:37:37;;;;;;;;;;;;;;;36.66;26.43;99573.19;5036531;28;19920;-37
2022/05/31 10:40:07;;;;;;;;;;;;;;;35.74;26.76;99567.13;5046686;28;20062;-38
2022/05/31 10:42:34;;;;;;;;;;;;;;;35.36;27.15;99565.44;5035358;28;19909;-38
2022/05/31 10:45:04;;;;;;;;;;;;;;;35.17;28.48;99569.94;5032665;28;19909;-39
2022/05/31 10:47:29;;;;;;;;;;;;;;;35.57;28.39;99562.94;5049399;28;19992;-37
2022/05/31 10:49:54;;;;;;;;;;;;;;;36.73;27.72;99557.41;5037900;28;20019;-37
2022/05/31 10:52:20;;;;;;;;;;;;;;;37.32;26.12;99565.69;5044721;28;19964;-38
2022/05/31 10:54:53;;;;;;;;;;;;;;;36.33;26.79;99564.56;5044813;28;19917;-37
2022/05/31 10:57:24;;;;;;;;;;;;;;;37.00;26.43;99562.72;5036476;28;19909;-37
2022/05/31 10:59:58;;;;;;;;;;;;;;;36.32;27.14;99548.34;5037130;28;19988;-38
2022/05/31 11:02:24;;;;;;;;;;;;;;;36.07;27.61;99556.38;5043563;28;20012;-38
2022/05/31 11:04:49;;;;;;;;;;;;;;;36.11;27.22;99551.66;5045103;28;20448;-38
2022/05/31 11:07:14;;;;;;;;;;;;;;;36.53;27.06;99553.25;5036698;28;19913;-37
2022/05/31 11:13:00;;;;;;;;;;;;;;;35.74;26.58;99525.59;5044174;28;20296;-37
2022/05/31 11:15:35;;;;;;;;;;;;;;;35.59;26.86;99521.84;5036251;28;20305;-39
2022/05/31 11:18:13;;;;;;;;;;;;;;;35.78;26.58;99520.13;5046688;28;19931;-38
2022/05/31 11:20:46;;;;;;;;;;;;;;;35.48;26.64;99517.38;5043267;28;19917;-38
2022/05/31 11:23:11;;;;;;;;;;;;;;;36.08;24.74;99506.16;5036791;28;20349;-38
2022/05/31 11:25:39;;;;;;;;;;;;;;;36.31;25.40;99505.19;5048911;28;19908;-37
2022/05/31 11:28:17;;;;;;;;;;;;;;;35.14;26.74;99490.47;5038425;28;19994;-37
2022/05/31 11:31:01;;;;;;;;;;;;;;;35.62;26.18;99493.44;5040480;28;19991;-38
2022/05/31 11:33:38;;;;;;;;;;;;;;;35.05;27.13;99487.19;5047930;28;19948;-37
2022/05/31 11:36:22;;;;;;;;;;;;;;;36.20;25.04;99482.97;5038706;28;20128;-37
2022/05/31 11:38:56;;;;;;;;;;;;;;;36.37;25.10;99487.03;5039863;28;20307;-38
2022/05/31 11:41:24;;;;;;;;;;;;;;;36.25;25.43;99485.34;5038075;28;20114;-38
2022/05/31 11:43:58;;;;;;;;;;;;;;;35.27;27.21;99495.78;5037342;28;19916;-44
2022/05/31 11:46:24;;;;;;;;;;;;;;;35.68;26.69;99493.94;5042849;28;20515;-38
2022/05/31 11:48:52;;;;;;;;;;;;;;;35.95;27.20;99489.03;5043831;28;20007;-37
2022/05/31 11:51:25;;;;;;;;;;;;;;;35.82;27.15;99482.97;5035696;28;19913;-39
2022/05/31 11:54:17;;;;;;;;;;;;;;;35.57;27.11;99485.47;5036079;28;20324;-38
2022/05/31 11:57:01;;;;;;;;;;;;;;;34.46;27.94;99484.75;5040384;28;19912;-38
2022/05/31 11:59:53;;;;;;;;;;;;;;;34.26;28.05;99491.53;5048149;28;19908;-38
2022/05/31 12:02:27;;;;;;;;;;;;;;;34.05;28.21;99497.47;5037380;28;19908;-39
2022/05/31 12:05:01;;;;;;;;;;;;;;;33.75;29.43;99494.56;5038622;28;19909;-38
2022/05/31 12:07:37;;;;;;;;;;;;;;;35.03;27.38;99495.88;5047706;28;19909;-38
2022/05/31 12:10:15;;;;;;;;;;;;;;;35.70;26.92;99499.88;5036993;28;19909;-38
2022/05/31 12:12:42;;;;;;;;;;;;;;;35.54;27.47;99494.50;5039899;28;20035;-38
2022/05/31 12:15:10;;;;;;;;;;;;;;;35.50;28.03;99496.44;5044752;28;19909;-38
2022/05/31 12:17:42;;;;;;;;;;;;;;;35.29;27.84;99502.53;5034672;28;19909;-37
2022/05/31 12:20:29;;;;;;;;;;;;;;;34.78;28.61;99506.56;5044166;28;19916;-38
2022/05/31 12:22:58;;;;;;;;;;;;;;;34.75;26.79;99504.56;5037471;28;19981;-46
2022/05/31 12:25:25;;;;;;;;;;;;;;;35.39;26.78;99501.84;5034492;28;19925;-38
2022/05/31 12:28:09;;;;;;;;;;;;;;;35.04;26.16;99496.66;5046573;28;19920;-38
2022/05/31 12:30:53;;;;;;;;;;;;;;;35.97;24.69;99500.53;5041301;28;19917;-38
2022/05/31 12:33:25;;;;;;;;;;;;;;;34.94;26.49;99506.41;5037090;28;19974;-38
2022/05/31 12:35:52;;;;;;;;;;;;;;;35.26;27.05;99516.31;5035305;28;20055;-37
2022/05/31 12:38:17;;;;;;;;;;;;;;;35.44;26.28;99497.97;5050517;28;19908;-38
2022/05/31 12:40:50;;;;;;;;;;;;;;;35.31;27.42;99496.63;5039226;28;19935;-38
2022/05/31 12:43:36;;;;;;;;;;;;;;;35.32;27.21;99489.91;5030379;28;19992;-38
2022/05/31 12:46:19;;;;;;;;;;;;;;;34.77;27.97;99484.84;5029357;28;19908;-37
2022/05/31 12:49:05;;;;;;;;;;;;;;;34.74;27.72;99477.28;5038859;28;19955;-38
2022/05/31 12:51:31;;;;;;;;;;;;;;;34.59;27.44;99479.81;5048740;28;20351;-38
2022/05/31 12:54:04;;;;;;;;;;;;;;;35.18;28.01;99483.03;5045279;28;19913;-37
2022/05/31 12:56:29;;;;;;;;;;;;;;;33.99;28.65;99491.44;5040526;28;19916;-39
2022/05/31 12:58:55;;;;;;;;;;;;;;;33.80;28.79;99497.81;5037266;28;20341;-38
2022/05/31 13:01:23;;;;;;;;;;;;;;;33.02;29.50;99519.81;5047346;28;20357;-37
2022/05/31 13:03:48;;;;;;;;;;;;;;;32.52;26.60;99540.69;5035087;28;19908;-37
2022/05/31 13:06:21;;;;;;;;;;;;;;;31.24;26.84;99522.25;5042665;28;19979;-38
2022/05/31 13:08:55;;;;;;;;;;;;;;;30.29;28.39;99536.06;5042462;28;19936;-39
2022/05/31 13:19:38;;;;;;;;;;;;;;;29.72;31.97;99570.50;5033993;28;20007;-38
2022/05/31 13:22:09;;;;;;;;;;;;;;;29.16;30.68;99581.72;5043731;28;19999;-38
2022/05/31 13:24:53;;;;;;;;;;;;;;;28.85;30.68;99588.31;5040557;28;19996;-37
2022/05/31 13:27:21;;;;;;;;;;;;;;;28.69;31.02;99585.31;5033719;28;19916;-37